Terminal Aerodrome Forecast
Issued by NWS Lake Charles, LA

Home | Current Version | Previous Version | Text Only | Print | Product List | Glossary On
Versions: 1 2 3 4 5 6 7 8 9 10 11 12 13 14 15 16 17 18 19 20 21 22 23 24 25 26
000
FTUS44 KLCH 251331 AAC
TAFBPT
TAF AMD
KBPT 251331Z 2514/2612 06008KT P6SM -RA BKN006 BKN016 OVC025
      TEMPO 2514/2516 SHRA BKN025 OVC035
     FM251600 07008KT P6SM -SHRA SCT025 OVC035
     FM252200 05007KT 5SM -RA VCTS OVC022CB
     FM260400 04005KT P6SM -RA VCTS OVC011CB=

USA.gov is the U.S. government's official web portal to all federal, state and local government web resources and services.